Time;durP1;ratioP1;P1;durP2;ratioP2;P2;SDS_P1;SDS_P2;PMS_P1;PMS_P2;Temp;Humidity;BMP_temperature;BMP_pressure;BME280_temperature;BME280_humidity;BME280_pressure;Samples;Min_cycle;Max_cycle;Signal;HPM_P1;HPM_P2
2022/12/23 00:01:20;;;;;;;;;;;11.10;99.90;;;;;;5045311;28;20052;-80
2022/12/23 00:03:46;;;;;;;0.65;0.50;;;11.10;99.90;;;;;;5043364;28;20347;-80
2022/12/23 00:06:14;;;;;;;0.50;0.50;;;11.10;99.90;;;;;;5027357;28;20054;-79
2022/12/23 00:08:41;;;;;;;0.80;0.52;;;11.00;99.90;;;;;;5044057;28;20083;-80
2022/12/23 00:11:13;;;;;;;0.50;0.43;;;11.00;99.90;;;;;;5024278;28;20484;-79
2022/12/23 00:16:25;;;;;;;0.60;0.60;;;11.00;99.90;;;;;;5060454;28;20052;-79
2022/12/23 00:18:53;;;;;;;0.85;0.60;;;11.00;99.90;;;;;;5042904;28;20051;-80
2022/12/23 00:21:20;;;;;;;0.52;0.43;;;11.00;99.90;;;;;;5043304;28;20055;-80
2022/12/23 00:23:47;;;;;;;0.63;0.50;;;10.90;99.90;;;;;;5028955;28;20083;-80
2022/12/23 00:26:15;;;;;;;0.98;0.73;;;10.90;99.90;;;;;;5043977;28;20055;-79
2022/12/23 00:28:42;;;;;;;0.60;0.60;;;10.80;99.90;;;;;;5042711;28;20044;-79
2022/12/23 00:31:09;;;;;;;0.88;0.70;;;10.80;99.90;;;;;;5059861;28;20060;-80
2022/12/23 00:33:38;;;;;;;1.05;0.73;;;10.80;99.90;;;;;;5059542;28;20055;-80
2022/12/23 00:36:22;;;;;;;0.60;0.60;;;10.70;99.90;;;;;;5062836;28;20059;-80
2022/12/23 00:44:19;;;;;;;0.50;0.40;;;10.60;99.90;;;;;;5062815;28;20055;-81
2022/12/23 00:46:46;;;;;;;1.10;0.65;;;10.60;99.90;;;;;;5030076;28;20144;-80
2022/12/23 00:51:59;;;;;;;0.55;0.50;;;10.60;99.90;;;;;;5053188;28;20052;-80
2022/12/23 00:54:26;;;;;;;0.40;0.40;;;10.60;99.90;;;;;;5050365;28;20067;-81
2022/12/23 00:56:53;;;;;;;0.60;0.60;;;10.60;99.90;;;;;;5050555;28;20090;-81
2022/12/23 00:59:20;;;;;;;0.50;0.50;;;10.60;99.90;;;;;;5049740;28;20045;-79
2022/12/23 01:07:18;;;;;;;0.57;0.50;;;10.60;99.90;;;;;;5049673;28;20041;-79
2022/12/23 01:09:45;;;;;;;0.65;0.65;;;10.60;99.90;;;;;;5030645;28;20503;-79
2022/12/23 01:12:11;;;;;;;1.08;0.50;;;10.60;99.90;;;;;;5062700;28;20174;-79
2022/12/23 01:14:38;;;;;;;1.63;0.50;;;10.60;99.90;;;;;;5045804;28;20045;-79
2022/12/23 01:17:06;;;;;;;1.33;0.80;;;10.50;99.90;;;;;;5029878;28;20111;-79
2022/12/23 01:19:33;;;;;;;0.90;0.60;;;10.50;99.90;;;;;;5029838;28;20055;-79
2022/12/23 01:22:00;;;;;;;0.70;0.45;;;10.50;99.90;;;;;;5029675;28;20044;-79
2022/12/23 01:24:28;;;;;;;0.73;0.50;;;10.50;99.90;;;;;;5046518;28;20512;-79
2022/12/23 01:26:54;;;;;;;1.27;0.63;;;10.40;99.90;;;;;;5062701;28;20144;-79
2022/12/23 01:29:21;;;;;;;0.88;0.57;;;10.40;99.90;;;;;;5062930;28;20201;-79
2022/12/23 01:31:48;;;;;;;0.40;0.40;;;10.40;99.90;;;;;;5062141;28;20079;-79
2022/12/23 01:34:15;;;;;;;0.45;0.40;;;10.40;99.90;;;;;;5062345;28;20357;-79
2022/12/23 01:36:42;;;;;;;0.40;0.40;;;10.40;99.90;;;;;;5045955;28;20479;-78
2022/12/23 01:39:09;;;;;;;0.30;0.30;;;10.40;99.90;;;;;;5046548;28;20135;-79
2022/12/23 01:44:52;;;;;;;0.30;0.30;;;10.30;99.90;;;;;;5046705;28;20962;-79
2022/12/23 01:47:22;;;;;;;1.73;0.60;;;10.30;99.90;;;;;;5062744;28;20556;-79
2022/12/23 01:49:49;;;;;;;0.70;0.50;;;10.30;99.90;;;;;;5062520;28;20102;-79
2022/12/23 01:52:16;;;;;;;0.32;0.32;;;10.30;99.90;;;;;;5029681;28;20056;-79
2022/12/23 01:54:43;;;;;;;0.90;0.43;;;10.30;99.90;;;;;;5062293;28;20053;-79
2022/12/23 01:57:09;;;;;;;0.50;0.35;;;10.30;99.90;;;;;;5045559;28;20242;-79
2022/12/23 02:05:11;;;;;;;0.20;0.20;;;10.30;99.90;;;;;;5028089;28;20061;-79
2022/12/23 02:10:24;;;;;;;0.30;0.30;;;10.30;99.90;;;;;;5042597;28;20094;-79
2022/12/23 02:12:55;;;;;;;0.43;0.30;;;10.20;99.90;;;;;;5041881;28;20496;-79
2022/12/23 02:18:33;;;;;;;0.28;0.28;;;10.30;99.90;;;;;;5049761;28;20051;-78
2022/12/23 02:21:20;;;;;;;0.20;0.20;;;10.30;99.90;;;;;;5043618;28;20115;-79
2022/12/23 02:24:01;;;;;;;0.77;0.40;;;10.30;99.90;;;;;;5045504;28;20456;-79
2022/12/23 02:27:06;;;;;;;0.10;0.10;;;10.20;99.90;;;;;;5063286;28;20061;-79
2022/12/23 02:29:54;;;;;;;0.20;0.20;;;10.30;99.90;;;;;;5060809;28;20449;-78
2022/12/23 02:33:01;;;;;;;0.30;0.30;;;10.30;99.90;;;;;;5057394;28;20579;-79
2022/12/23 02:35:45;;;;;;;0.20;0.20;;;10.30;99.90;;;;;;5047656;28;20562;-78
2022/12/23 02:38:40;;;;;;;0.20;0.20;;;10.20;99.90;;;;;;5047445;28;20048;-79
2022/12/23 02:41:13;;;;;;;0.35;0.30;;;10.20;99.90;;;;;;5049791;28;20059;-78
2022/12/23 02:43:50;;;;;;;0.20;0.20;;;10.20;99.90;;;;;;5049815;28;20045;-79
2022/12/23 02:46:21;;;;;;;0.20;0.20;;;10.20;99.90;;;;;;5065374;28;20462;-78
2022/12/23 02:49:01;;;;;;;0.20;0.20;;;10.10;99.90;;;;;;5048536;28;20054;-78
2022/12/23 02:51:34;;;;;;;0.20;0.20;;;10.20;99.90;;;;;;5048652;28;20067;-78
2022/12/23 02:54:01;;;;;;;;;;;10.20;99.90;;;;;;5065876;28;20135;-79
2022/12/23 02:56:29;;;;;;;0.10;0.10;;;10.20;99.90;;;;;;5065550;28;20045;-79
2022/12/23 02:59:18;;;;;;;0.10;0.10;;;10.10;99.90;;;;;;5047819;28;20059;-79
2022/12/23 03:01:45;;;;;;;0.30;0.30;;;10.10;99.90;;;;;;5064947;28;20102;-78
2022/12/23 03:04:13;;;;;;;0.32;0.30;;;10.00;99.90;;;;;;5064783;28;20105;-79
2022/12/23 03:06:44;;;;;;;0.20;0.20;;;10.00;99.90;;;;;;5048715;28;20063;-78
2022/12/23 03:09:34;;;;;;;0.20;0.20;;;10.00;99.90;;;;;;5032910;28;20514;-78
2022/12/23 03:12:09;;;;;;;0.20;0.20;;;10.00;99.90;;;;;;5064182;28;20613;-78
2022/12/23 03:14:44;;;;;;;0.20;0.20;;;10.00;99.90;;;;;;5032114;28;20049;-79
2022/12/23 03:17:45;;;;;;;0.30;0.30;;;10.00;99.90;;;;;;5032451;28;20385;-79
2022/12/23 03:20:18;;;;;;;0.25;0.25;;;9.90;99.90;;;;;;5064760;28;20459;-78
2022/12/23 03:22:56;;;;;;;0.20;0.20;;;10.00;99.90;;;;;;5048815;28;20123;-78
2022/12/23 03:25:35;;;;;;;0.30;0.30;;;9.90;99.90;;;;;;5048751;28;20112;-79
2022/12/23 03:28:08;;;;;;;0.20;0.20;;;9.90;99.90;;;;;;5048110;28;20055;-79
2022/12/23 03:30:35;;;;;;;;;;;9.90;99.90;;;;;;5065942;28;20517;-79
2022/12/23 03:33:11;;;;;;;0.55;0.20;;;9.90;99.90;;;;;;5047487;28;20014;-79
2022/12/23 03:36:00;;;;;;;0.05;0.05;;;9.90;99.90;;;;;;5049304;28;20250;-79
2022/12/23 03:38:26;;;;;;;0.32;0.20;;;9.90;99.90;;;;;;5048432;28;20134;-78
2022/12/23 03:40:58;;;;;;;0.20;0.20;;;9.90;99.90;;;;;;5048036;28;20521;-79
2022/12/23 03:43:32;;;;;;;0.75;0.30;;;9.90;99.90;;;;;;5031130;28;20098;-78
2022/12/23 03:46:01;;;;;;;0.30;0.30;;;9.80;99.90;;;;;;5047732;28;20079;-79
2022/12/23 03:48:33;;;;;;;0.15;0.15;;;9.80;99.90;;;;;;5047573;28;20490;-79
2022/12/23 03:51:03;;;;;;;0.30;0.30;;;9.80;99.90;;;;;;5047905;28;20139;-79
2022/12/23 03:53:32;;;;;;;0.20;0.20;;;9.90;99.90;;;;;;5048098;28;20044;-79
2022/12/23 03:56:01;;;;;;;0.35;0.30;;;9.90;99.90;;;;;;5031925;28;20055;-79
2022/12/23 03:58:50;;;;;;;0.28;0.28;;;9.80;99.90;;;;;;5063412;28;20052;-78
2022/12/23 04:01:44;;;;;;;0.30;0.30;;;9.80;99.90;;;;;;5064244;28;20058;-78
2022/12/23 04:04:19;;;;;;;0.17;0.17;;;9.80;99.90;;;;;;5064175;28;20079;-80
2022/12/23 04:06:51;;;;;;;0.20;0.20;;;9.80;99.90;;;;;;5032097;28;20128;-78
2022/12/23 04:09:18;;;;;;;0.20;0.20;;;9.80;99.90;;;;;;5047815;28;20140;-79
2022/12/23 04:11:48;;;;;;;0.28;0.28;;;9.80;99.90;;;;;;5032026;28;20052;-79
2022/12/23 04:14:18;;;;;;;0.30;0.30;;;9.90;99.90;;;;;;5063237;28;20045;-79
2022/12/23 04:16:45;;;;;;;0.20;0.20;;;9.90;99.90;;;;;;5047657;28;20058;-79
2022/12/23 04:19:12;;;;;;;0.20;0.20;;;9.90;99.90;;;;;;5030879;28;20131;-78
2022/12/23 04:21:39;;;;;;;0.20;0.20;;;9.90;99.90;;;;;;5031221;28;20053;-79
2022/12/23 04:24:06;;;;;;;0.20;0.20;;;9.90;99.90;;;;;;5049548;28;20040;-78
2022/12/23 04:26:32;;;;;;;0.10;0.10;;;9.90;99.90;;;;;;5034835;28;20060;-78
2022/12/23 04:28:59;;;;;;;0.30;0.30;;;9.90;99.90;;;;;;5051274;28;20059;-79
2022/12/23 04:31:26;;;;;;;0.13;0.13;;;9.90;99.90;;;;;;5051349;28;20633;-78
2022/12/23 04:33:52;;;;;;;0.20;0.20;;;9.80;99.90;;;;;;5051178;28;20044;-79
2022/12/23 04:36:19;;;;;;;0.22;0.22;;;9.80;99.90;;;;;;5068305;28;20119;-79
2022/12/23 04:38:46;;;;;;;0.20;0.20;;;9.80;99.90;;;;;;5052012;28;20066;-81
2022/12/23 04:41:13;;;;;;;0.20;0.20;;;9.80;99.90;;;;;;5068082;28;20044;-79
2022/12/23 04:43:39;;;;;;;0.10;0.10;;;9.80;99.90;;;;;;5066903;28;20055;-79
2022/12/23 04:46:06;;;;;;;0.20;0.20;;;9.80;99.90;;;;;;5034773;28;20134;-78
2022/12/23 04:48:34;;;;;;;0.20;0.20;;;9.80;99.90;;;;;;5067892;28;20059;-78
2022/12/23 04:51:01;;;;;;;0.20;0.20;;;9.80;99.90;;;;;;5034498;28;20523;-79
2022/12/23 04:53:28;;;;;;;0.30;0.30;;;9.80;99.90;;;;;;5035524;28;20177;-79
2022/12/23 04:55:55;;;;;;;0.10;0.10;;;9.80;99.90;;;;;;5051491;28;20733;-79
2022/12/23 04:58:23;;;;;;;0.10;0.10;;;9.80;99.90;;;;;;5050106;28;20048;-79
2022/12/23 05:01:02;;;;;;;0.10;0.10;;;9.80;99.90;;;;;;5051149;28;20143;-78
2022/12/23 05:03:29;;;;;;;0.17;0.17;;;9.90;99.90;;;;;;5050874;28;20045;-79
2022/12/23 05:05:56;;;;;;;0.47;0.47;;;9.90;99.90;;;;;;5051167;28;20049;-79
2022/12/23 05:08:22;;;;;;;0.47;0.20;;;9.90;99.90;;;;;;5051359;28;20128;-79
2022/12/23 05:10:49;;;;;;;0.20;0.20;;;9.90;99.90;;;;;;5067377;28;20064;-78
2022/12/23 05:13:16;;;;;;;0.20;0.20;;;9.80;99.90;;;;;;5049636;28;20088;-79
2022/12/23 05:15:44;;;;;;;0.10;0.10;;;9.80;99.90;;;;;;5068826;28;20044;-79
2022/12/23 05:18:11;;;;;;;0.30;0.30;;;9.80;99.90;;;;;;5050110;28;20054;-78
2022/12/23 05:20:37;;;;;;;0.10;0.10;;;9.80;99.90;;;;;;5033990;28;20465;-78
2022/12/23 05:23:04;;;;;;;0.20;0.20;;;9.80;99.90;;;;;;5034256;28;20264;-79
2022/12/23 05:25:35;;;;;;;0.20;0.20;;;9.90;99.90;;;;;;5068035;28;20579;-79
2022/12/23 05:28:02;;;;;;;0.20;0.20;;;9.90;99.90;;;;;;5049533;28;20066;-79
2022/12/23 05:30:28;;;;;;;0.10;0.10;;;9.90;99.90;;;;;;5067602;28;20630;-78
2022/12/23 05:32:56;;;;;;;0.20;0.20;;;9.90;99.90;;;;;;5066200;28;20052;-79
2022/12/23 05:35:23;;;;;;;0.20;0.20;;;9.90;99.90;;;;;;5066816;28;20051;-79
2022/12/23 05:37:50;;;;;;;0.20;0.20;;;9.90;99.90;;;;;;5066896;28;20098;-79
2022/12/23 05:40:17;;;;;;;0.10;0.10;;;9.90;99.90;;;;;;5050438;28;20480;-79
2022/12/23 05:42:50;;;;;;;0.20;0.20;;;9.90;99.90;;;;;;5065544;28;20045;-79
2022/12/23 05:45:17;;;;;;;0.20;0.20;;;9.90;99.90;;;;;;5033852;28;20048;-79
2022/12/23 05:47:43;;;;;;;0.20;0.20;;;9.90;99.90;;;;;;5050065;28;20059;-79
2022/12/23 05:50:10;;;;;;;0.20;0.10;;;9.90;99.90;;;;;;5045890;28;20385;-78
2022/12/23 05:52:37;;;;;;;0.20;0.20;;;9.90;99.90;;;;;;5064200;28;20087;-79
2022/12/23 05:55:04;;;;;;;1.45;0.40;;;9.90;99.90;;;;;;5031995;28;20076;-79
2022/12/23 05:57:31;;;;;;;0.20;0.20;;;9.90;99.90;;;;;;5064499;28;20044;-79
2022/12/23 05:59:58;;;;;;;0.17;0.17;;;9.90;99.90;;;;;;5064096;28;20500;-79
2022/12/23 06:02:25;;;;;;;0.15;0.15;;;9.90;99.90;;;;;;5046450;28;20139;-79
2022/12/23 06:04:52;;;;;;;0.20;0.20;;;9.90;99.90;;;;;;5045662;28;20048;-81
2022/12/23 06:07:19;;;;;;;0.10;0.10;;;9.80;99.90;;;;;;5045839;28;20059;-79
2022/12/23 06:09:45;;;;;;;0.20;0.20;;;9.80;99.90;;;;;;5048918;28;20044;-80
2022/12/23 06:12:12;;;;;;;0.20;0.20;;;9.80;99.90;;;;;;5066600;28;20045;-81
2022/12/23 06:14:39;;;;;;;0.20;0.20;;;9.80;99.90;;;;;;5064727;28;20523;-81
2022/12/23 06:17:06;;;;;;;0.20;0.20;;;9.80;99.90;;;;;;5031176;28;20071;-81
2022/12/23 06:19:32;;;;;;;0.20;0.15;;;9.70;99.90;;;;;;5062601;28;20159;-78
2022/12/23 06:21:59;;;;;;;0.32;0.30;;;9.80;99.90;;;;;;5029176;28;20514;-81
2022/12/23 06:24:26;;;;;;;0.28;0.20;;;9.80;99.90;;;;;;5045333;28;20052;-81
2022/12/23 06:26:53;;;;;;;0.20;0.20;;;9.70;99.90;;;;;;5045325;28;20056;-81
2022/12/23 06:29:23;;;;;;;0.13;0.13;;;9.70;99.90;;;;;;5062576;28;20057;-81
2022/12/23 06:31:50;;;;;;;0.20;0.20;;;9.70;99.90;;;;;;5063117;28;20060;-81
2022/12/23 06:34:17;;;;;;;0.20;0.20;;;9.70;99.90;;;;;;5062562;28;20627;-81
2022/12/23 06:36:43;;;;;;;0.20;0.20;;;9.60;99.90;;;;;;5044749;28;20186;-81
2022/12/23 06:39:10;;;;;;;0.30;0.30;;;9.60;99.90;;;;;;5061819;28;20813;-81
2022/12/23 06:41:37;;;;;;;0.22;0.22;;;9.60;99.90;;;;;;5045378;28;20052;-81
2022/12/23 06:44:04;;;;;;;0.10;0.10;;;9.60;99.90;;;;;;5060493;28;20436;-82
2022/12/23 06:46:30;;;;;;;0.30;0.30;;;9.60;99.90;;;;;;5045058;28;20523;-81
2022/12/23 06:48:57;;;;;;;0.30;0.30;;;9.60;99.90;;;;;;5061211;28;20063;-82
2022/12/23 06:51:24;;;;;;;0.38;0.28;;;9.50;99.90;;;;;;5061099;28;20061;-81
2022/12/23 06:53:51;;;;;;;0.65;0.30;;;9.50;99.90;;;;;;5060827;28;20520;-81
2022/12/23 06:56:18;;;;;;;0.45;0.40;;;9.50;99.90;;;;;;5045228;28;20048;-79
2022/12/23 06:58:44;;;;;;;0.30;0.25;;;9.50;99.90;;;;;;5043689;28;20063;-79
2022/12/23 07:01:12;;;;;;;0.60;0.45;;;9.50;99.90;;;;;;5044201;28;20530;-81
2022/12/23 07:03:39;;;;;;;0.20;0.20;;;9.40;99.90;;;;;;5045180;28;20056;-82
2022/12/23 07:06:06;;;;;;;0.57;0.50;;;9.40;99.90;;;;;;5044708;28;20829;-82
2022/12/23 07:08:33;;;;;;;1.10;0.35;;;9.30;99.90;;;;;;5043107;28;20132;-81
2022/12/23 07:11:00;;;;;;;1.83;1.10;;;9.20;99.90;;;;;;5025773;28;20197;-79
2022/12/23 07:13:27;;;;;;;1.40;0.93;;;9.20;99.90;;;;;;5060009;28;20049;-81
2022/12/23 07:15:54;;;;;;;1.48;1.10;;;9.20;99.90;;;;;;5022055;28;20132;-81
2022/12/23 07:18:21;;;;;;;1.67;1.00;;;9.10;99.90;;;;;;5044152;28;20044;-81
2022/12/23 07:20:49;;;;;;;1.15;0.80;;;9.10;99.90;;;;;;5037732;28;20047;-78
2022/12/23 07:23:16;;;;;;;1.08;0.73;;;9.10;99.90;;;;;;5056941;28;20058;-82
2022/12/23 07:25:42;;;;;;;1.20;0.80;;;9.10;99.90;;;;;;5055035;28;20041;-80
2022/12/23 07:28:09;;;;;;;0.60;0.52;;;9.10;99.90;;;;;;5056340;28;20059;-81
2022/12/23 07:30:36;;;;;;;1.17;0.52;;;9.10;99.90;;;;;;5024682;28;20048;-81
2022/12/23 07:33:03;;;;;;;1.17;0.60;;;9.10;99.90;;;;;;5057293;28;20044;-80
2022/12/23 07:35:30;;;;;;;0.45;0.40;;;9.10;99.90;;;;;;5027889;28;20053;-81
2022/12/23 07:37:57;;;;;;;0.45;0.40;;;9.20;99.90;;;;;;5075383;28;20109;-82
2022/12/23 07:40:24;;;;;;;0.75;0.60;;;9.20;99.90;;;;;;5043993;28;20453;-82
2022/12/23 07:42:57;;;;;;;1.02;0.70;;;9.10;99.90;;;;;;5036730;28;20813;-82
2022/12/23 07:45:25;;;;;;;0.75;0.60;;;9.10;99.90;;;;;;5037530;28;20131;-82
2022/12/23 07:47:53;;;;;;;1.35;0.95;;;9.10;99.90;;;;;;5034416;28;20049;-82
2022/12/23 07:50:20;;;;;;;1.42;0.70;;;9.10;99.90;;;;;;5057670;28;20099;-80
2022/12/23 07:52:47;;;;;;;1.17;0.70;;;9.10;99.90;;;;;;5036844;28;20135;-80
2022/12/23 07:55:14;;;;;;;0.85;0.50;;;9.10;99.90;;;;;;5035234;28;20056;-79
2022/12/23 07:57:40;;;;;;;0.60;0.50;;;9.10;99.90;;;;;;5038877;28;20048;-78
2022/12/23 08:00:09;;;;;;;0.88;0.50;;;9.10;99.90;;;;;;5068091;28;20403;-80
2022/12/23 08:02:36;;;;;;;0.32;0.32;;;9.10;99.90;;;;;;5054415;28;20048;-79
2022/12/23 08:05:03;;;;;;;0.50;0.50;;;9.10;99.90;;;;;;5051886;28;20401;-80
2022/12/23 08:07:30;;;;;;;0.60;0.40;;;9.10;99.90;;;;;;5044249;28;20136;-79
2022/12/23 08:09:57;;;;;;;0.95;0.60;;;9.10;99.90;;;;;;5054364;28;20055;-80
2022/12/23 08:12:24;;;;;;;0.80;0.70;;;9.10;99.90;;;;;;5048036;28;22237;-78
2022/12/23 08:14:51;;;;;;;0.47;0.40;;;9.10;99.90;;;;;;5051442;28;20047;-78
2022/12/23 08:17:20;;;;;;;0.55;0.50;;;9.10;99.90;;;;;;5030367;28;20055;-78
2022/12/23 08:19:47;;;;;;;0.47;0.40;;;9.10;99.90;;;;;;5046183;28;20053;-77
2022/12/23 08:22:14;;;;;;;0.80;0.60;;;9.00;99.90;;;;;;5045719;28;20537;-77
2022/12/23 08:24:41;;;;;;;0.40;0.40;;;9.00;99.90;;;;;;5034640;28;20185;-78
2022/12/23 08:27:08;;;;;;;0.50;0.50;;;9.00;99.90;;;;;;5036980;28;20111;-78
2022/12/23 08:29:35;;;;;;;0.22;0.22;;;8.90;99.90;;;;;;5053920;28;20052;-78
2022/12/23 08:32:02;;;;;;;0.77;0.40;;;9.00;99.90;;;;;;5017456;28;20045;-78
2022/12/23 08:34:29;;;;;;;0.40;0.40;;;9.00;99.90;;;;;;5057674;28;20052;-78
2022/12/23 08:36:55;;;;;;;0.40;0.40;;;9.00;99.90;;;;;;5039979;28;20052;-78
2022/12/23 08:39:22;;;;;;;0.45;0.45;;;9.00;99.90;;;;;;5045907;28;20656;-78
2022/12/23 08:41:49;;;;;;;0.50;0.50;;;9.00;99.90;;;;;;5020064;28;20541;-79
2022/12/23 08:44:16;;;;;;;1.17;0.93;;;9.00;99.90;;;;;;5049833;28;20047;-78
2022/12/23 08:46:42;;;;;;;1.33;0.98;;;9.00;99.90;;;;;;5055496;28;20098;-78
2022/12/23 08:49:09;;;;;;;1.55;1.00;;;9.00;99.90;;;;;;5051098;28;20143;-79
2022/12/23 08:51:36;;;;;;;1.13;0.90;;;9.00;99.90;;;;;;5057809;28;20149;-87
2022/12/23 08:54:03;;;;;;;2.05;1.00;;;9.00;99.90;;;;;;5029915;28;20064;-79
2022/12/23 08:56:32;;;;;;;0.73;0.73;;;9.00;99.90;;;;;;5026143;28;20524;-80
2022/12/23 08:58:59;;;;;;;0.95;0.70;;;9.00;99.90;;;;;;5041392;28;20132;-80
2022/12/23 09:01:27;;;;;;;1.30;0.75;;;9.00;99.90;;;;;;5056111;28;20036;-79
2022/12/23 09:03:54;;;;;;;0.70;0.65;;;8.90;99.90;;;;;;5040657;28;20444;-79
2022/12/23 09:06:26;;;;;;;0.77;0.65;;;8.90;99.90;;;;;;5043708;28;20136;-79
2022/12/23 09:08:56;;;;;;;0.40;0.40;;;8.90;99.90;;;;;;5061464;28;20106;-79
2022/12/23 09:11:24;;;;;;;0.57;0.57;;;8.90;99.90;;;;;;5047079;28;20044;-79
2022/12/23 09:13:51;;;;;;;0.32;0.32;;;9.00;99.90;;;;;;5046742;28;20083;-79
2022/12/23 09:16:18;;;;;;;0.85;0.57;;;9.00;99.90;;;;;;5049118;28;20044;-79
2022/12/23 09:18:45;;;;;;;0.60;0.40;;;9.10;99.90;;;;;;5065915;28;20059;-79
2022/12/23 09:21:13;;;;;;;0.30;0.30;;;9.10;99.90;;;;;;5049442;28;20053;-79
2022/12/23 09:23:40;;;;;;;0.30;0.30;;;9.10;99.90;;;;;;5064992;28;20109;-79
2022/12/23 09:26:07;;;;;;;0.40;0.40;;;9.20;99.90;;;;;;5030296;28;20052;-79
2022/12/23 09:28:34;;;;;;;0.30;0.30;;;9.20;99.90;;;;;;5045920;28;20053;-79
2022/12/23 09:31:08;;;;;;;0.30;0.30;;;9.20;99.90;;;;;;5032737;28;20098;-79
2022/12/23 09:33:35;;;;;;;0.40;0.40;;;9.30;99.90;;;;;;5033002;28;20131;-79
2022/12/23 09:36:02;;;;;;;0.50;0.32;;;9.30;99.90;;;;;;5032792;28;20051;-79
2022/12/23 09:38:29;;;;;;;0.30;0.30;;;9.30;99.90;;;;;;5033289;28;20411;-80
2022/12/23 09:41:24;;;;;;;0.20;0.20;;;9.30;99.90;;;;;;5066000;28;20062;-79
2022/12/23 09:44:18;;;;;;;0.35;0.30;;;9.30;99.90;;;;;;5061687;28;20059;-79
2022/12/23 09:46:50;;;;;;;;;;;9.30;99.90;;;;;;5064314;28;20155;-79
2022/12/23 09:49:17;;;;;;;0.20;0.20;;;9.30;99.90;;;;;;5048985;28;20049;-79
2022/12/23 09:51:44;;;;;;;0.30;0.30;;;9.40;99.90;;;;;;5033373;28;20040;-79
2022/12/23 09:54:18;;;;;;;0.20;0.20;;;9.40;99.90;;;;;;5026397;28;20059;-79
2022/12/23 09:56:57;;;;;;;0.28;0.15;;;9.40;99.90;;;;;;5041986;28;20048;-79
2022/12/23 09:59:42;;;;;;;0.20;0.20;;;9.40;99.90;;;;;;5047409;28;20052;-80
2022/12/23 10:02:45;;;;;;;0.30;0.30;;;9.50;99.90;;;;;;5063975;28;20052;-80
2022/12/23 10:05:25;;;;;;;0.30;0.22;;;9.50;99.90;;;;;;5062217;28;20067;-80
2022/12/23 10:08:03;;;;;;;0.30;0.30;;;9.50;99.90;;;;;;5061675;28;20135;-80
2022/12/23 10:10:53;;;;;;;0.20;0.20;;;9.50;99.90;;;;;;5030519;28;20224;-81
2022/12/23 10:13:28;;;;;;;0.30;0.30;;;9.50;99.90;;;;;;5030578;28;20048;-80
2022/12/23 10:15:57;;;;;;;0.20;0.20;;;9.50;99.90;;;;;;5028766;28;20147;-81
2022/12/23 10:18:31;;;;;;;0.20;0.20;;;9.50;99.90;;;;;;5032026;28;20044;-80
2022/12/23 10:21:04;;;;;;;0.30;0.30;;;9.50;99.90;;;;;;5064963;28;20052;-80
2022/12/23 10:23:36;;;;;;;0.28;0.28;;;9.60;99.90;;;;;;5030475;28;20067;-80
2022/12/23 10:26:08;;;;;;;0.30;0.30;;;9.70;99.90;;;;;;5029347;28;20060;-80
2022/12/23 10:28:35;;;;;;;0.52;0.30;;;9.80;99.90;;;;;;5044700;28;20412;-80
2022/12/23 10:31:03;;;;;;;0.13;0.13;;;9.90;99.90;;;;;;5028604;28;20112;-80
2022/12/23 10:33:59;;;;;;;0.20;0.20;;;9.90;99.90;;;;;;5033476;28;20515;-80
2022/12/23 10:36:38;;;;;;;0.15;0.15;;;9.90;99.90;;;;;;5044668;28;20059;-79
2022/12/23 10:39:17;;;;;;;0.20;0.20;;;10.00;99.90;;;;;;5061884;28;20044;-80
2022/12/23 10:41:44;;;;;;;0.20;0.20;;;10.00;99.90;;;;;;5029658;28;20059;-80
2022/12/23 10:44:32;;;;;;;0.30;0.30;;;10.20;99.90;;;;;;5060645;28;20176;-81
2022/12/23 10:47:05;;;;;;;0.30;0.30;;;10.20;99.90;;;;;;5046678;28;20176;-80
2022/12/23 10:49:45;;;;;;;0.22;0.22;;;10.30;99.90;;;;;;5061922;28;20562;-80
2022/12/23 10:52:21;;;;;;;0.38;0.20;;;10.40;99.90;;;;;;5060851;28;20044;-79
2022/12/23 10:54:48;;;;;;;0.20;0.20;;;10.50;99.90;;;;;;5031522;28;20159;-80
2022/12/23 10:57:16;;;;;;;0.20;0.20;;;10.50;99.90;;;;;;5065977;28;20059;-80
2022/12/23 10:59:43;;;;;;;0.20;0.20;;;10.50;99.90;;;;;;5030881;28;20056;-80
2022/12/23 11:02:13;;;;;;;0.10;0.10;;;10.50;99.90;;;;;;5031353;28;20051;-80
2022/12/23 11:04:46;;;;;;;0.20;0.20;;;10.60;99.90;;;;;;5063801;28;20048;-80
2022/12/23 11:07:18;;;;;;;0.20;0.20;;;10.70;99.90;;;;;;5064243;28;20102;-80
2022/12/23 11:10:07;;;;;;;0.30;0.30;;;10.80;99.90;;;;;;5034771;28;20048;-80
2022/12/23 11:12:52;;;;;;;0.13;0.13;;;10.80;99.90;;;;;;5027049;28;20049;-80
2022/12/23 11:15:33;;;;;;;0.30;0.30;;;10.80;99.90;;;;;;5061472;28;20044;-80
2022/12/23 11:18:11;;;;;;;0.30;0.30;;;10.80;99.90;;;;;;5045637;28;20050;-80
2022/12/23 11:20:40;;;;;;;0.20;0.20;;;10.80;99.90;;;;;;5063991;28;20056;-80
2022/12/23 11:23:31;;;;;;;0.30;0.30;;;10.80;99.90;;;;;;5045534;28;20083;-80
2022/12/23 11:26:03;;;;;;;0.28;0.28;;;10.90;99.90;;;;;;5057228;28;20444;-80
2022/12/23 11:28:30;;;;;;;0.57;0.43;;;11.00;99.90;;;;;;5027377;28;20056;-80
2022/12/23 11:31:07;;;;;;;0.20;0.20;;;11.00;99.90;;;;;;5046882;28;20048;-80
2022/12/23 11:33:35;;;;;;;0.30;0.30;;;11.00;99.90;;;;;;5043804;28;20468;-80
2022/12/23 11:36:03;;;;;;;0.63;0.30;;;11.10;99.90;;;;;;5043670;28;20049;-80
2022/12/23 11:38:30;;;;;;;0.88;0.55;;;11.10;99.90;;;;;;5045339;28;20056;-80
2022/12/23 11:40:57;;;;;;;0.30;0.30;;;11.20;99.90;;;;;;5031235;28;20057;-81
2022/12/23 11:43:24;;;;;;;0.40;0.38;;;11.30;99.90;;;;;;5046056;28;20087;-81
2022/12/23 11:46:12;;;;;;;0.40;0.40;;;11.30;99.90;;;;;;5030595;28;20076;-80
2022/12/23 11:48:39;;;;;;;0.43;0.40;;;11.40;99.90;;;;;;5064615;28;20131;-80
2022/12/23 11:51:06;;;;;;;0.60;0.50;;;11.40;99.90;;;;;;5023573;28;20106;-81
2022/12/23 11:53:35;;;;;;;0.70;0.70;;;11.40;99.90;;;;;;5047812;28;20150;-80
2022/12/23 11:56:06;;;;;;;0.70;0.60;;;11.50;99.90;;;;;;5045591;28;20098;-80
2022/12/23 11:59:00;;;;;;;0.38;0.38;;;11.50;99.90;;;;;;5045951;28;20318;-80
2022/12/23 12:01:27;;;;;;;1.02;0.60;;;11.60;99.90;;;;;;5045932;28;20156;-80
2022/12/23 12:03:59;;;;;;;0.68;0.50;;;11.80;99.90;;;;;;5062885;28;20202;-80
2022/12/23 12:06:26;;;;;;;0.50;0.50;;;11.90;99.90;;;;;;5044194;28;20127;-80
2022/12/23 12:08:55;;;;;;;0.65;0.50;;;12.00;99.90;;;;;;5027093;28;20144;-80
2022/12/23 12:11:26;;;;;;;1.05;0.40;;;12.00;99.90;;;;;;5027746;28;20129;-80
2022/12/23 12:14:03;;;;;;;1.38;0.60;;;12.10;99.90;;;;;;5045338;28;20049;-80
2022/12/23 12:16:29;;;;;;;0.98;0.60;;;12.30;99.90;;;;;;5046988;28;20060;-80
2022/12/23 12:18:59;;;;;;;0.63;0.55;;;12.50;99.90;;;;;;5062965;28;20048;-80
2022/12/23 12:21:28;;;;;;;0.70;0.50;;;12.70;99.90;;;;;;5030629;28;20071;-80
2022/12/23 12:24:03;;;;;;;0.90;0.73;;;12.80;99.90;;;;;;5044984;28;20091;-80
2022/12/23 12:26:49;;;;;;;1.50;0.55;;;12.90;99.90;;;;;;5045811;28;20141;-80
2022/12/23 12:29:41;;;;;;;1.17;0.82;;;13.10;99.90;;;;;;5059338;28;20106;-79
2022/12/23 12:32:33;;;;;;;1.42;0.57;;;13.10;99.90;;;;;;5061035;28;20056;-79
2022/12/23 12:35:14;;;;;;;1.30;0.60;;;13.10;99.90;;;;;;5059824;28;20099;-79
2022/12/23 12:38:19;;;;;;;1.38;0.60;;;13.20;99.90;;;;;;5043695;28;20052;-79
2022/12/23 12:40:56;;;;;;;2.08;0.93;;;13.30;99.90;;;;;;5002919;28;20639;-79
2022/12/23 12:43:27;;;;;;;3.08;1.60;;;13.30;99.90;;;;;;4987512;28;20081;-79
2022/12/23 12:46:03;;;;;;;0.90;0.63;;;13.40;99.90;;;;;;5039932;28;20123;-79
2022/12/23 12:48:52;;;;;;;2.28;1.15;;;13.40;99.90;;;;;;5068312;28;20053;-79
2022/12/23 12:51:41;;;;;;;2.10;0.85;;;13.50;99.90;;;;;;5049923;28;20056;-79
2022/12/23 12:54:27;;;;;;;2.45;0.73;;;13.60;99.90;;;;;;5034298;28;20095;-79
2022/12/23 12:56:55;;;;;;;2.67;1.20;;;13.60;99.90;;;;;;5066396;28;20511;-79
2022/12/23 12:59:27;;;;;;;2.38;1.00;;;13.60;99.90;;;;;;5033310;28;20135;-79
2022/12/23 13:02:09;;;;;;;3.58;1.00;;;13.70;99.90;;;;;;5050364;28;20123;-79
2022/12/23 13:05:00;;;;;;;1.85;0.73;;;13.80;99.90;;;;;;5051369;28;20044;-78
2022/12/23 13:07:46;;;;;;;2.30;1.10;;;13.90;99.90;;;;;;5065658;28;20037;-79
2022/12/23 13:10:46;;;;;;;2.83;1.10;;;14.10;99.90;;;;;;5065276;28;20045;-79
2022/12/23 13:13:31;;;;;;;1.95;1.10;;;14.00;99.90;;;;;;5064209;28;20145;-75
2022/12/23 13:16:39;;;;;;;4.80;1.63;;;14.00;99.90;;;;;;5065009;28;20420;-79
2022/12/23 13:19:22;;;;;;;2.78;1.25;;;14.00;99.90;;;;;;5054438;28;20135;-80
2022/12/23 13:21:54;;;;;;;4.22;1.40;;;14.10;99.90;;;;;;5039630;28;20416;-80
2022/12/23 13:24:29;;;;;;;3.05;1.40;;;14.30;99.90;;;;;;5067325;28;20059;-79
2022/12/23 13:27:05;;;;;;;2.38;1.05;;;14.50;99.90;;;;;;5033795;28;20057;-81
2022/12/23 13:30:12;;;;;;;2.72;1.13;;;14.40;99.90;;;;;;5059074;28;20114;-79
2022/12/23 13:33:15;;;;;;;1.92;1.30;;;14.40;99.90;;;;;;5039844;28;20131;-80
2022/12/23 13:36:17;;;;;;;2.45;0.82;;;14.30;99.90;;;;;;5063860;28;20087;-80
2022/12/23 13:38:58;;;;;;;2.35;1.15;;;14.20;99.90;;;;;;5044601;28;20048;-80
2022/12/23 13:41:38;;;;;;;3.13;0.85;;;14.10;99.90;;;;;;5046951;28;20064;-79
2022/12/23 13:44:07;;;;;;;2.03;1.15;;;14.10;99.90;;;;;;5046827;28;20131;-79
2022/12/23 13:46:48;;;;;;;4.25;1.02;;;14.00;99.90;;;;;;5061746;28;20128;-80
2022/12/23 13:49:28;;;;;;;2.65;1.38;;;14.00;99.90;;;;;;5062700;28;20052;-80